Terminal Aerodrome Forecast
Issued by NWS

Current Version | Previous Version | Text Only | Print | Product List | Glossary Off
Versions: 1 2 3 4 5 6 7 8 9 10 11 12 13 14 15 16 17 18 19 20

000
FTUS41 KILN 010200 AAA
TAFLCK
TAF AMD
KLCK 010257Z 0103/0124 36012KT P6SM OVC012
     FM010500 36010KT 4SM BR OVC008
     FM011000 36008KT 4SM BR OVC004
     FM011400 01010KT P6SM VCSH OVC015
     FM012000 01010KT P6SM OVC025=

USA.gov is the U.S. government's official web portal to all federal, state and local government web resources and services.